createdAt,value
2018-06-21T00:00:26.244Z,7.00
2018-06-21T00:03:36.745Z,6.78
2018-06-21T00:06:47.526Z,7.45
2018-06-21T00:09:58.260Z,7.80
2018-06-21T00:13:08.802Z,6.60
2018-06-21T00:16:18.697Z,7.70
2018-06-21T00:19:29.715Z,7.65
2018-06-21T00:22:40.342Z,8.23
2018-06-21T00:25:51.225Z,6.72
2018-06-21T00:29:02.095Z,6.78
2018-06-21T00:32:12.732Z,6.67
2018-06-21T00:35:23.432Z,8.60
2018-06-21T00:38:33.371Z,7.45
2018-06-21T00:41:44.390Z,9.23
2018-06-21T00:44:54.885Z,7.30
2018-06-21T00:48:05.801Z,6.80
2018-06-21T00:51:16.445Z,9.35
2018-06-21T00:54:26.373Z,7.12
2018-06-21T00:57:36.264Z,7.47
2018-06-21T01:00:46.173Z,8.25
2018-06-21T01:03:57.142Z,9.45
2018-06-21T01:07:07.978Z,7.70
2018-06-21T01:10:18.918Z,8.60
2018-06-21T01:13:29.650Z,10.03
2018-06-21T01:16:40.422Z,8.38
2018-06-21T01:19:51.258Z,8.33
2018-06-21T01:23:01.195Z,8.00
2018-06-21T01:26:11.920Z,7.33
2018-06-21T01:29:21.900Z,8.38
2018-06-21T01:32:32.811Z,9.13
2018-06-21T01:35:43.555Z,9.38
2018-06-21T01:38:53.476Z,8.00
2018-06-21T01:42:05.031Z,8.83
2018-06-21T01:45:15.080Z,7.37
2018-06-21T01:48:25.306Z,8.38
2018-06-21T01:51:36.033Z,6.00
2018-06-21T01:54:46.060Z,6.97
2018-06-21T01:57:56.363Z,8.08
2018-06-21T02:01:07.319Z,7.80
2018-06-21T02:04:17.843Z,7.25
2018-06-21T02:07:27.705Z,8.48
2018-06-21T02:10:37.821Z,8.98
2018-06-21T02:13:48.223Z,9.05
2018-06-21T02:16:58.646Z,5.92
2018-06-21T02:20:09.335Z,7.85
2018-06-21T02:23:19.876Z,6.30
2018-06-21T02:26:30.102Z,9.30
2018-06-21T02:29:41.092Z,9.25
2018-06-21T02:32:51.945Z,11.05
2018-06-21T02:36:02.783Z,8.83
2018-06-21T02:39:13.532Z,11.28
2018-06-21T02:42:23.943Z,7.30
2018-06-21T02:45:34.361Z,10.45
2018-06-21T02:48:44.313Z,9.30
2018-06-21T02:51:54.241Z,9.30
2018-06-21T02:55:04.437Z,7.40
2018-06-21T02:58:15.373Z,8.65
2018-06-21T03:01:26.187Z,7.45
2018-06-21T03:04:36.770Z,8.75
2018-06-21T03:07:46.756Z,7.70
2018-06-21T03:10:57.610Z,9.90
2018-06-21T03:14:07.795Z,8.15
2018-06-21T03:17:18.454Z,8.88
2018-06-21T03:20:34.782Z,8.43
2018-06-21T03:30:37.705Z,9.58
2018-06-21T03:33:48.545Z,10.45
2018-06-21T03:36:59.373Z,8.30
2018-06-21T03:40:10.230Z,9.53
2018-06-21T03:43:23.188Z,8.13
2018-06-21T03:46:39.610Z,10.05
2018-06-21T03:49:49.664Z,12.37
2018-06-21T03:53:00.218Z,7.55
2018-06-21T03:56:10.604Z,8.60
2018-06-21T03:59:21.412Z,7.45
2018-06-21T04:02:32.326Z,8.20
2018-06-21T04:05:43.166Z,7.92
2018-06-21T04:08:53.988Z,8.05
2018-06-21T04:12:04.729Z,7.65
2018-06-21T04:15:16.063Z,10.32
2018-06-21T04:18:30.812Z,7.85
2018-06-21T04:21:41.438Z,9.50
2018-06-21T04:25:34.603Z,7.80
2018-06-21T04:28:45.227Z,9.40
2018-06-21T04:31:55.353Z,7.75
2018-06-21T04:35:05.942Z,8.38
2018-06-21T04:38:15.781Z,7.20
2018-06-21T04:41:25.832Z,6.65
2018-06-21T04:44:37.032Z,9.50
2018-06-21T04:47:47.771Z,9.45
2018-06-21T04:50:58.307Z,8.78
2018-06-21T04:54:08.984Z,8.75
2018-06-21T04:57:19.691Z,9.48
2018-06-21T05:00:29.603Z,8.18
2018-06-21T05:03:40.023Z,7.60
2018-06-21T05:06:50.495Z,8.00
2018-06-21T05:10:00.967Z,8.55
2018-06-21T05:13:11.596Z,7.60
2018-06-21T05:16:22.267Z,9.60
2018-06-21T05:19:32.648Z,7.62
2018-06-21T05:22:43.255Z,9.60
2018-06-21T05:25:53.167Z,8.00
2018-06-21T05:29:04.333Z,8.15
2018-06-21T05:32:14.895Z,7.22
2018-06-21T05:39:01.167Z,7.37
2018-06-21T05:42:11.480Z,9.75
2018-06-21T05:45:22.405Z,8.05
2018-06-21T05:48:33.439Z,8.18
2018-06-21T05:51:44.017Z,6.30
2018-06-21T05:54:54.969Z,7.92
2018-06-21T05:58:05.538Z,6.78
2018-06-21T06:01:15.293Z,7.53
2018-06-21T06:04:25.093Z,7.17
2018-06-21T06:07:39.572Z,6.77
2018-06-21T06:10:51.635Z,7.53
2018-06-21T06:14:01.978Z,7.40
2018-06-21T06:17:12.354Z,8.40
2018-06-21T06:20:22.223Z,6.33
2018-06-21T06:23:32.153Z,7.30
2018-06-21T06:26:41.975Z,7.00
2018-06-21T06:29:51.954Z,8.90
2018-06-21T06:33:04.775Z,9.33
2018-06-21T06:36:18.656Z,6.20
2018-06-21T06:39:29.289Z,5.23
2018-06-21T06:42:38.987Z,5.80
2018-06-21T06:45:49.299Z,5.93
2018-06-21T06:48:59.252Z,6.70
2018-06-21T06:52:09.130Z,6.10
2018-06-21T08:23:58.428Z,5.10
2018-06-21T08:27:08.749Z,5.43
2018-06-21T08:30:18.882Z,4.33
2018-06-21T08:33:30.637Z,4.33
2018-06-21T08:36:40.665Z,4.87
2018-06-21T08:39:50.397Z,4.30
2018-06-21T08:43:00.312Z,5.00
2018-06-21T08:46:09.961Z,4.40
2018-06-21T08:49:19.939Z,6.80
2018-06-21T08:52:29.722Z,4.70
2018-06-21T08:55:39.280Z,4.93
2018-06-21T08:58:49.303Z,4.83
2018-06-21T09:01:59.847Z,5.03
2018-06-21T09:05:13.487Z,5.00
2018-06-21T09:08:23.197Z,4.07
2018-06-21T09:11:32.986Z,3.60
2018-06-21T09:14:42.615Z,4.30
2018-06-21T09:17:52.648Z,3.63
2018-06-21T09:21:03.038Z,2.77
2018-06-21T09:24:14.191Z,4.17
2018-06-21T09:27:24.460Z,3.63
2018-06-21T09:30:35.153Z,4.87
2018-06-21T09:33:44.985Z,5.47
2018-06-21T09:36:55.351Z,4.73
2018-06-21T09:40:11.341Z,4.73
2018-06-21T09:43:28.135Z,3.20
2018-06-21T09:46:43.048Z,2.70
2018-06-21T09:49:53.585Z,4.70
2018-06-21T09:53:03.363Z,3.43
2018-06-21T09:56:13.299Z,3.93
2018-06-21T09:59:23.807Z,4.07
2018-06-21T10:02:33.630Z,3.60
2018-06-21T10:05:43.280Z,3.83
2018-06-21T10:08:53.012Z,4.10
2018-06-21T10:12:02.921Z,3.97
2018-06-21T10:15:12.651Z,4.00
2018-06-21T10:18:22.300Z,4.50
2018-06-21T10:21:32.021Z,3.00
2018-06-21T10:24:42.339Z,5.30
2018-06-21T10:27:52.724Z,2.23
2018-06-21T10:31:09.746Z,3.73
2018-06-21T10:34:21.037Z,5.30
2018-06-21T10:37:31.414Z,4.10
2018-06-21T10:40:41.337Z,4.17
2018-06-21T10:43:51.881Z,5.13
2018-06-21T10:47:02.052Z,4.47
2018-06-21T10:50:12.364Z,4.67
2018-06-21T10:53:22.948Z,4.53
2018-06-21T10:56:33.684Z,5.90
2018-06-21T10:59:44.292Z,3.20
2018-06-21T11:02:54.191Z,3.63
2018-06-21T11:06:04.176Z,5.17
2018-06-21T11:09:14.492Z,3.83
2018-06-21T11:12:24.294Z,5.03
2018-06-21T11:15:33.956Z,3.97
2018-06-21T11:18:45.076Z,3.87
2018-06-21T11:21:55.621Z,3.63
2018-06-21T11:25:05.986Z,4.10
2018-06-21T11:28:16.206Z,2.90
2018-06-21T11:31:26.125Z,3.50
2018-06-21T11:34:36.064Z,3.10
2018-06-21T11:37:46.321Z,2.83
2018-06-21T11:40:57.027Z,4.90
2018-06-21T11:44:07.545Z,3.10
2018-06-21T11:47:17.261Z,2.97
2018-06-21T11:50:27.115Z,2.77
2018-06-21T11:53:37.650Z,3.67
2018-06-21T11:56:47.405Z,2.87
2018-06-21T11:59:57.064Z,5.03
2018-06-21T12:03:17.969Z,3.37
2018-06-21T12:06:28.918Z,6.70
2018-06-21T12:09:39.449Z,3.43
2018-06-21T12:12:50.050Z,4.00
2018-06-21T12:15:59.681Z,4.20
2018-06-21T12:19:09.576Z,5.20
2018-06-21T12:22:19.518Z,3.97
2018-06-21T12:25:29.771Z,3.87
2018-06-21T12:28:39.895Z,4.90
2018-06-21T12:31:49.608Z,3.70
2018-06-21T12:34:59.621Z,13.30
2018-06-21T12:38:09.450Z,4.47
2018-06-21T12:41:19.913Z,5.37
2018-06-21T12:44:29.714Z,6.50
2018-06-21T12:47:39.676Z,2.93
2018-06-21T12:50:49.842Z,3.27
2018-06-21T12:54:00.193Z,3.00
2018-06-21T12:57:10.830Z,2.90
2018-06-21T13:00:21.532Z,3.77
2018-06-21T13:03:31.386Z,2.72
2018-06-21T13:06:41.951Z,3.98
2018-06-21T13:10:03.295Z,2.70
2018-06-21T13:13:17.444Z,2.62
2018-06-21T13:16:28.260Z,3.17
2018-06-21T13:19:39.179Z,3.95
2018-06-21T13:22:50.137Z,3.05
2018-06-21T13:26:00.886Z,3.20
2018-06-21T13:29:13.130Z,3.40
2018-06-21T13:32:23.714Z,5.15
2018-06-21T13:35:38.015Z,2.75
2018-06-21T13:38:48.243Z,3.17
2018-06-21T13:41:59.124Z,3.67
2018-06-21T13:45:09.777Z,3.85
2018-06-21T13:48:21.490Z,3.60
2018-06-21T13:51:32.177Z,4.53
2018-06-21T13:54:42.656Z,7.33
2018-06-21T13:57:52.932Z,3.90
2018-06-21T14:01:03.355Z,3.58
2018-06-21T14:04:13.858Z,5.22
2018-06-21T14:07:23.918Z,3.10
2018-06-21T14:10:34.418Z,5.20
2018-06-21T14:13:44.934Z,2.95
2018-06-21T14:16:55.921Z,4.30
2018-06-21T14:20:06.461Z,3.42
2018-06-21T14:23:17.211Z,5.95
2018-06-21T14:26:28.316Z,3.60
2018-06-21T14:29:38.224Z,3.58
2018-06-21T14:32:48.852Z,4.50
2018-06-21T14:35:59.710Z,3.83
2018-06-21T14:39:10.613Z,6.30
2018-06-21T14:42:21.009Z,5.33
2018-06-21T14:45:31.990Z,4.95
2018-06-21T14:48:43.311Z,3.25
2018-06-21T14:51:53.508Z,4.83
2018-06-21T14:55:03.608Z,6.25
2018-06-21T14:58:14.655Z,5.05
2018-06-21T15:01:24.962Z,6.80
2018-06-21T15:04:34.906Z,7.20
2018-06-21T15:07:45.713Z,6.75
2018-06-21T15:10:56.608Z,4.53
2018-06-21T15:14:06.905Z,5.17
2018-06-21T15:17:17.126Z,5.53
2018-06-21T15:20:27.580Z,6.20
2018-06-21T15:23:37.699Z,6.25
2018-06-21T15:26:48.712Z,5.22
2018-06-21T15:29:59.084Z,5.05
2018-06-21T15:33:09.665Z,7.90
2018-06-21T15:36:19.714Z,5.45
2018-06-21T15:39:30.443Z,5.95
2018-06-21T15:42:41.316Z,6.72
2018-06-21T15:45:52.180Z,6.60
2018-06-21T15:49:02.716Z,5.95
2018-06-21T15:52:13.601Z,5.22
2018-06-21T15:55:24.574Z,6.67
2018-06-21T15:58:35.126Z,5.08
2018-06-21T16:01:45.896Z,8.30
2018-06-21T16:04:56.697Z,7.87
2018-06-21T16:08:07.475Z,7.45
2018-06-21T16:11:17.787Z,5.65
2018-06-21T16:14:28.214Z,5.55
2018-06-21T16:17:38.931Z,8.78
2018-06-21T16:20:49.040Z,6.05
2018-06-21T16:23:59.833Z,6.90
2018-06-21T16:27:10.500Z,8.50
2018-06-21T16:30:20.898Z,5.97
2018-06-21T16:33:31.729Z,5.45
2018-06-21T16:36:42.784Z,7.62
2018-06-21T16:39:53.574Z,5.30
2018-06-21T16:43:04.697Z,7.22
2018-06-21T16:46:15.381Z,4.33
2018-06-21T16:49:26.135Z,5.45
2018-06-21T16:52:37.100Z,4.65
2018-06-21T16:55:47.961Z,4.47
2018-06-21T16:58:58.841Z,3.80
2018-06-21T17:02:09.245Z,4.03
2018-06-21T17:05:20.004Z,3.30
2018-06-21T17:08:30.686Z,4.45
2018-06-21T17:11:41.162Z,2.27
2018-06-21T17:14:51.619Z,2.00
2018-06-21T17:18:02.170Z,2.40
2018-06-21T17:21:12.799Z,2.27
2018-06-21T17:24:22.687Z,2.40
2018-06-21T17:27:33.075Z,2.90
2018-06-21T17:30:43.437Z,2.50
2018-06-21T17:33:54.228Z,2.20
2018-06-21T17:37:04.925Z,1.80
2018-06-21T17:40:15.486Z,2.20
2018-06-21T17:43:26.296Z,2.58
2018-06-21T17:46:38.933Z,1.90
2018-06-21T17:49:49.271Z,2.65
2018-06-21T17:53:00.013Z,2.10
2018-06-21T17:56:10.487Z,3.90
2018-06-21T17:59:21.182Z,1.87
2018-06-21T18:02:31.660Z,2.95
2018-06-21T18:05:43.472Z,2.15
2018-06-21T18:08:54.292Z,2.10
2018-06-21T18:12:07.732Z,2.40
2018-06-21T18:15:18.760Z,2.87
2018-06-21T18:18:31.274Z,2.55
2018-06-21T18:21:43.281Z,2.83
2018-06-21T18:24:54.725Z,2.20
2018-06-21T18:28:08.032Z,3.45
2018-06-21T18:31:18.402Z,2.45
2018-06-21T18:34:28.850Z,2.42
2018-06-21T18:37:38.759Z,2.12
2018-06-21T18:40:48.791Z,2.40
2018-06-21T18:43:59.714Z,4.15
2018-06-21T18:47:10.200Z,2.37
2018-06-21T18:50:20.282Z,2.40
2018-06-21T18:53:31.019Z,2.80
2018-06-21T18:56:41.233Z,1.77
2018-06-21T18:59:51.416Z,2.15
2018-06-21T19:03:02.056Z,1.98
2018-06-21T19:06:17.926Z,2.20
2018-06-21T19:09:33.901Z,1.82
2018-06-21T19:12:44.097Z,3.10
2018-06-21T19:15:54.743Z,1.67
2018-06-21T19:19:04.823Z,1.92
2018-06-21T19:22:15.371Z,2.37
2018-06-21T19:25:26.368Z,2.00
2018-06-21T19:28:37.502Z,2.33
2018-06-21T19:31:48.478Z,1.60
2018-06-21T19:34:59.407Z,1.92
2018-06-21T19:38:10.199Z,2.12
2018-06-21T19:41:21.069Z,2.65
2018-06-21T19:44:31.015Z,2.15
2018-06-21T19:47:41.218Z,2.12
2018-06-21T19:50:51.985Z,1.90
2018-06-21T19:54:03.376Z,1.90
2018-06-21T19:57:13.619Z,2.60
2018-06-21T20:00:24.335Z,2.30
2018-06-21T20:03:35.046Z,2.15
2018-06-21T20:06:45.145Z,1.60
2018-06-21T20:09:55.070Z,2.27
2018-06-21T20:13:05.967Z,1.90
2018-06-21T20:16:17.240Z,2.08
2018-06-21T20:19:28.404Z,2.00
2018-06-21T20:22:39.289Z,2.20
2018-06-21T20:25:50.229Z,2.20
2018-06-21T20:29:00.698Z,2.70
2018-06-21T20:32:11.991Z,1.87
2018-06-21T20:35:22.173Z,2.25
2018-06-21T20:38:32.248Z,2.60
2018-06-21T20:41:42.827Z,1.85
2018-06-21T20:44:53.857Z,2.12
2018-06-21T20:48:04.657Z,2.27
2018-06-21T20:51:15.580Z,1.85
2018-06-21T20:54:26.385Z,2.42
2018-06-21T20:57:37.261Z,1.77
2018-06-21T21:00:48.037Z,1.60
2018-06-21T21:03:58.759Z,2.80
2018-06-21T21:07:08.989Z,2.65
2018-06-21T21:10:19.900Z,2.22
2018-06-21T21:13:30.415Z,4.40
2018-06-21T21:16:40.301Z,2.42
2018-06-21T21:19:51.610Z,1.92
2018-06-21T21:23:02.038Z,2.12
2018-06-21T21:26:12.900Z,2.30
2018-06-21T21:29:23.860Z,1.50
2018-06-21T21:32:33.787Z,2.12
2018-06-21T21:35:44.561Z,2.75
2018-06-21T21:38:55.311Z,2.50
2018-06-21T21:42:05.826Z,1.95
2018-06-21T21:45:16.671Z,2.83
2018-06-21T21:48:27.505Z,2.20
2018-06-21T21:51:38.139Z,2.50
2018-06-21T21:54:49.018Z,2.52
2018-06-21T21:57:59.335Z,3.00
2018-06-21T22:01:09.237Z,2.50
2018-06-21T22:04:19.204Z,2.27
2018-06-21T22:07:30.057Z,2.50
2018-06-21T22:10:41.857Z,2.10
2018-06-21T22:13:56.374Z,2.10
2018-06-21T22:17:07.097Z,1.95
2018-06-21T22:20:16.928Z,1.95
2018-06-21T22:23:26.949Z,2.05
2018-06-21T22:26:37.862Z,2.52
2018-06-21T22:29:48.700Z,2.00
2018-06-21T22:32:59.616Z,3.30
2018-06-21T22:36:09.895Z,2.10
2018-06-21T22:39:20.741Z,2.30
2018-06-21T22:42:30.781Z,2.30
2018-06-21T22:45:41.518Z,2.35
2018-06-21T22:48:52.042Z,2.25
2018-06-21T22:52:02.433Z,1.90
2018-06-21T22:55:12.459Z,3.05
2018-06-21T22:58:22.824Z,2.50
2018-06-21T23:01:36.590Z,2.12
2018-06-21T23:04:46.449Z,2.10
2018-06-21T23:07:57.223Z,2.10
2018-06-21T23:11:08.883Z,2.08
2018-06-21T23:14:18.857Z,2.40
2018-06-21T23:17:29.025Z,1.98
2018-06-21T23:20:39.030Z,2.45
2018-06-21T23:23:49.828Z,2.60
2018-06-21T23:27:00.527Z,3.08
2018-06-21T23:30:10.994Z,2.50
2018-06-21T23:33:21.666Z,2.45
2018-06-21T23:36:32.086Z,2.55
2018-06-21T23:39:43.056Z,2.10
2018-06-21T23:42:53.600Z,2.22
2018-06-21T23:46:04.420Z,2.08
2018-06-21T23:49:15.517Z,2.02
2018-06-21T23:52:26.313Z,2.17
2018-06-21T23:55:37.134Z,2.17
2018-06-21T23:58:47.921Z,2.30
